Home   Weather   Spain   Logroño   Past weeks
Flag for Spain

Past Weather in Logroño, La Rioja, Spain — Yesterday and Last 2 Weeks

Currently: 43 °F. Sunny. (Weather station: Logrono / Agoncillo, Spain). See more current weather

Past Weather in Logroño — Graph

°F

Logroño Temperature Yesterday

Maximum temperature yesterday: 55 °F (at 1:00 pm)
Minimum temperature yesterday: 41 °F (at 9:30 pm)
Average temperature yesterday: 49 °F

High & Low Weather Summary for the Past Weeks

 TemperatureHumidityPressure
High72 °F (Nov 17, 2:00 pm)100% (Nov 13, 6:30 am)30.45 "Hg (Nov 13, 6:30 am)
Low37 °F (Nov 26, 4:30 am)33% (Nov 17, 2:00 pm)29.62 "Hg (Nov 17, 2:00 pm)
Average50 °F85%30.01 "Hg
* Reported Nov 11 10:00 am — Nov 26 10:00 am, Logroño. Weather by CustomWeather, © 2022

Note: Actual official high and low records may vary slightly from our data, if they occured in-between our weather recording intervals... More about our weather records

Logroño Weather History for the Previous 24 Hours

Scroll right to see more
 ConditionsComfort  
Time TempWeatherWind HumidityBarometerVisibility
10:00 am
Sat, Nov 26
41 °FPassing clouds.3 mph93%30.42 "HgN/A
9:30 am39 °FPassing clouds.5 mph93%30.42 "HgN/A
9:00 am37 °FSunny.5 mph93%30.42 "Hg10 mi
8:30 am37 °FPassing clouds.5 mph93%30.42 "HgN/A
8:00 am37 °FClear.5 mph93%30.42 "Hg10 mi
7:30 am39 °FPassing clouds.5 mph93%30.42 "HgN/A
7:00 am37 °FClear.7 mph93%30.42 "Hg10 mi
6:30 am37 °FClear.6 mph100%30.42 "Hg10 mi
6:00 am37 °FPassing clouds.6 mph100%30.42 "HgN/A
5:30 am37 °FPassing clouds.7 mph93%30.42 "HgN/A
5:00 am37 °FPassing clouds.5 mph93%30.42 "HgN/A
4:30 am37 °FClear.5 mph93%30.42 "Hg10 mi
4:00 am39 °FClear.5 mph93%30.42 "Hg10 mi
3:30 am39 °FClear.1 mph93%30.42 "Hg10 mi
3:00 am39 °FPassing clouds.3 mph100%30.42 "HgN/A
2:30 am39 °FPassing clouds.3 mph93%30.42 "HgN/A
2:00 am39 °FClear.5 mph93%30.45 "Hg10 mi
12:30 am39 °FPassing clouds.6 mph100%30.45 "HgN/A
12:00 am39 °FClear.6 mph93%30.45 "Hg10 mi
11:30 pm
Fri, Nov 25
41 °FClear.5 mph93%30.45 "Hg10 mi
11:00 pm41 °FClear.7 mph93%30.45 "Hg10 mi
10:30 pm41 °FPassing clouds.3 mph93%30.42 "HgN/A
10:00 pm41 °FClear.2 mph93%30.42 "Hg10 mi
9:30 pm41 °FClear.5 mph93%30.42 "Hg10 mi
9:00 pm43 °FClear.1 mph87%30.42 "Hg10 mi
8:30 pm46 °FClear.2 mph82%30.42 "Hg10 mi
8:00 pm48 °FPassing clouds.1 mph76%30.42 "HgN/A
7:00 pm52 °FPassing clouds.6 mph67%30.39 "HgN/A
6:30 pm48 °FPassing clouds.2 mph82%30.39 "HgN/A
6:00 pm50 °FPassing clouds.5 mph71%30.39 "HgN/A
5:00 pm54 °FScattered clouds.8 mph58%30.36 "HgN/A
4:30 pm54 °FScattered clouds.7 mph54%30.36 "HgN/A
4:00 pm54 °FScattered clouds.10 mph58%30.33 "HgN/A
3:30 pm54 °FScattered clouds.9 mph63%30.33 "HgN/A
3:00 pm55 °FScattered clouds.8 mph55%30.33 "HgN/A
2:30 pm55 °FScattered clouds.12 mph59%30.33 "HgN/A
2:00 pm54 °FScattered clouds.9 mph63%30.33 "HgN/A
1:30 pm54 °FLight rain. Partly sunny.10 mph67%30.33 "HgN/A
1:00 pm55 °FScattered clouds.13 mph67%30.33 "HgN/A
12:30 pm54 °FScattered clouds.15 mph63%30.30 "HgN/A
12:00 pm52 °FScattered clouds.14 mph72%30.30 "HgN/A
11:30 am54 °FScattered clouds.10 mph72%30.30 "HgN/A
11:00 am52 °FScattered clouds.14 mph82%30.27 "HgN/A
Weather by CustomWeather, © 2022

See weather overview